createdAt,value
2022-08-11T00:00:00.910Z,20.3
2022-08-11T00:01:00.614Z,20.3
2022-08-11T00:02:00.440Z,20.3
2022-08-11T00:03:00.165Z,20.3
2022-08-11T00:03:59.916Z,20.3
2022-08-11T00:04:59.611Z,20.3
2022-08-11T00:06:01.361Z,20.3
2022-08-11T00:07:01.166Z,20.3
2022-08-11T00:08:00.864Z,20.2
2022-08-11T00:09:00.561Z,20.1
2022-08-11T00:10:00.265Z,19.9
2022-08-11T00:10:59.958Z,19.6
2022-08-11T00:11:59.896Z,19.4
2022-08-11T00:13:00.612Z,19.2
2022-08-11T00:14:00.560Z,19.1
2022-08-11T00:15:00.322Z,19.1
2022-08-11T00:15:59.987Z,19.1
2022-08-11T00:16:59.695Z,19.1
2022-08-11T00:18:01.432Z,19.1
2022-08-11T00:19:01.132Z,19.1
2022-08-11T00:20:12.273Z,19.1
2022-08-11T00:21:00.790Z,19.1
2022-08-11T00:22:05.317Z,19.1
2022-08-11T00:23:01.602Z,19.1
2022-08-11T00:24:01.066Z,19.1
2022-08-11T00:25:02.664Z,19.1
2022-08-11T00:26:00.973Z,19.1
2022-08-11T00:27:00.682Z,19.1
2022-08-11T00:28:00.334Z,19.1
2022-08-11T00:28:59.994Z,19.2
2022-08-11T00:29:59.668Z,19.2
2022-08-11T00:31:01.335Z,19.2
2022-08-11T00:32:00.702Z,19.2
2022-08-11T00:33:00.429Z,19.2
2022-08-11T00:34:00.065Z,19.1
2022-08-11T00:35:54.809Z,19.1
2022-08-11T00:36:01.333Z,19.1
2022-08-11T00:37:01.235Z,19.1
2022-08-11T00:38:00.972Z,19.1
2022-08-11T00:39:00.894Z,19.1
2022-08-11T00:40:00.597Z,19.1
2022-08-11T00:41:00.481Z,19.1
2022-08-11T00:42:00.125Z,19
2022-08-11T00:42:59.859Z,19
2022-08-11T00:44:01.640Z,19
2022-08-11T00:45:02.133Z,18.9
2022-08-11T00:46:00.710Z,18.8
2022-08-11T00:47:00.412Z,18.8
2022-08-11T00:48:00.566Z,18.8
2022-08-11T00:49:00.575Z,18.8
2022-08-11T00:50:00.247Z,18.8
2022-08-11T00:50:59.914Z,18.8
2022-08-11T00:52:05.436Z,18.7
2022-08-11T00:53:00.642Z,18.7
2022-08-11T00:54:00.397Z,18.6
2022-08-11T00:55:00.174Z,18.6
2022-08-11T00:55:59.847Z,18.6
2022-08-11T00:57:01.600Z,18.7
2022-08-11T00:58:00.782Z,18.7
2022-08-11T00:59:00.662Z,18.7
2022-08-11T01:00:03.818Z,18.7
2022-08-11T01:01:01.094Z,18.7
2022-08-11T01:02:00.912Z,18.6
2022-08-11T01:03:00.597Z,18.6
2022-08-11T01:04:00.328Z,18.7
2022-08-11T01:05:00.123Z,18.7
2022-08-11T01:06:00.208Z,18.7
2022-08-11T01:06:59.933Z,18.7
2022-08-11T01:08:03.319Z,18.7
2022-08-11T01:09:00.684Z,18.8
2022-08-11T01:10:05.052Z,18.8
2022-08-11T01:11:01.591Z,18.8
2022-08-11T01:12:03.553Z,18.8
2022-08-11T01:13:01.493Z,18.8
2022-08-11T01:14:00.917Z,18.7
2022-08-11T01:15:00.656Z,18.6
2022-08-11T01:16:00.440Z,18.5
2022-08-11T01:17:08.980Z,18.5
2022-08-11T01:18:01.540Z,18.5
2022-08-11T01:19:01.067Z,18.5
2022-08-11T01:20:39.375Z,18.5
2022-08-11T01:21:00.860Z,18.5
2022-08-11T01:22:08.807Z,18.5
2022-08-11T01:23:00.642Z,18.5
2022-08-11T01:24:00.384Z,18.6
2022-08-11T01:25:00.176Z,18.6
2022-08-11T01:25:59.834Z,18.5
2022-08-11T01:27:19.262Z,18.5
2022-08-11T01:28:01.502Z,18.5
2022-08-11T01:29:01.398Z,18.5
2022-08-11T01:30:01.098Z,18.5
2022-08-11T01:31:00.791Z,18.5
2022-08-11T01:32:14.350Z,18.5
2022-08-11T01:33:01.520Z,18.5
2022-08-11T01:34:00.801Z,18.5
2022-08-11T01:35:01.464Z,18.4
2022-08-11T01:36:01.228Z,18.3
2022-08-11T01:37:15.212Z,18.3
2022-08-11T01:38:01.366Z,18.3
2022-08-11T01:39:00.918Z,18.3
2022-08-11T01:40:00.644Z,18.3
2022-08-11T01:41:00.346Z,18.3
2022-08-11T01:42:00.051Z,18.3
2022-08-11T01:42:59.759Z,18.4
2022-08-11T01:44:01.950Z,18.4
2022-08-11T01:45:01.466Z,18.4
2022-08-11T01:46:01.427Z,18.4
2022-08-11T01:47:00.855Z,18.3
2022-08-11T01:48:01.113Z,18.3
2022-08-11T01:49:00.807Z,18.2
2022-08-11T01:50:08.105Z,18.1
2022-08-11T01:51:01.021Z,18.1
2022-08-11T01:52:00.721Z,18.1
2022-08-11T01:53:00.438Z,18
2022-08-11T01:54:00.143Z,18
2022-08-11T01:54:59.830Z,18
2022-08-11T01:56:02.406Z,18
2022-08-11T01:57:00.833Z,18
2022-08-11T01:58:00.544Z,17.9
2022-08-11T01:59:00.260Z,17.9
2022-08-11T01:59:59.845Z,17.9
2022-08-11T02:01:03.009Z,17.9
2022-08-11T02:02:00.789Z,17.9
2022-08-11T02:03:00.514Z,18
2022-08-11T02:04:00.190Z,18
2022-08-11T02:04:59.789Z,17.9
2022-08-11T02:06:01.673Z,17.9
2022-08-11T02:07:00.899Z,17.8
2022-08-11T02:08:00.567Z,17.7
2022-08-11T02:09:00.563Z,17.8
2022-08-11T02:10:00.935Z,17.8
2022-08-11T02:11:01.382Z,17.8
2022-08-11T02:12:01.754Z,17.7
2022-08-11T02:13:01.588Z,17.6
2022-08-11T02:14:00.771Z,17.6
2022-08-11T02:15:05.013Z,17.6
2022-08-11T02:16:01.411Z,17.7
2022-08-11T02:17:00.944Z,17.7
2022-08-11T02:18:00.694Z,17.7
2022-08-11T02:19:00.694Z,17.7
2022-08-11T02:20:00.303Z,17.8
2022-08-11T02:21:00.257Z,17.8
2022-08-11T02:22:00.146Z,17.8
2022-08-11T02:22:59.797Z,17.8
2022-08-11T02:24:06.962Z,17.7
2022-08-11T02:25:01.459Z,17.6
2022-08-11T02:26:00.755Z,17.6
2022-08-11T02:27:00.409Z,17.6
2022-08-11T02:28:00.184Z,17.5
2022-08-11T02:28:59.946Z,17.6
2022-08-11T02:29:59.610Z,17.6
2022-08-11T02:31:01.425Z,17.5
2022-08-11T02:32:24.151Z,17.5
2022-08-11T02:33:01.204Z,17.5
2022-08-11T02:34:00.901Z,17.5
2022-08-11T02:35:00.857Z,17.5
2022-08-11T02:36:00.605Z,17.4
2022-08-11T02:37:00.320Z,17.4
2022-08-11T02:37:59.988Z,17.4
2022-08-11T02:38:59.715Z,17.4
2022-08-11T02:40:01.396Z,17.4
2022-08-11T02:41:01.065Z,17.4
2022-08-11T02:42:01.061Z,17.4
2022-08-11T02:43:00.675Z,17.3
2022-08-11T02:44:00.340Z,17.4
2022-08-11T02:45:00.067Z,17.3
2022-08-11T02:45:59.745Z,17.3
2022-08-11T02:47:01.465Z,17.3
2022-08-11T02:48:01.311Z,17.1
2022-08-11T02:49:01.008Z,17.1
2022-08-11T02:50:07.637Z,17.1
2022-08-11T02:51:00.809Z,17.1
2022-08-11T02:52:00.982Z,17.2
2022-08-11T02:53:01.692Z,17.3
2022-08-11T02:54:00.975Z,17.3
2022-08-11T02:55:00.623Z,17.3
2022-08-11T02:56:00.333Z,17.3
2022-08-11T02:57:00.025Z,17.3
2022-08-11T02:57:59.698Z,17.3
2022-08-11T02:59:01.368Z,17.4
2022-08-11T03:00:01.027Z,17.4
2022-08-11T03:01:00.770Z,17.4
2022-08-11T03:02:04.886Z,17.4
2022-08-11T03:03:00.712Z,17.4
2022-08-11T03:04:00.391Z,17.5
2022-08-11T03:05:00.091Z,17.5
2022-08-11T03:05:59.772Z,17.5
2022-08-11T03:07:02.472Z,17.6
2022-08-11T03:08:02.288Z,17.5
2022-08-11T03:09:00.823Z,17.5
2022-08-11T03:10:00.519Z,17.5
2022-08-11T03:11:00.240Z,17.5
2022-08-11T03:11:59.880Z,17.5
2022-08-11T03:13:00.238Z,17.6
2022-08-11T03:14:00.213Z,17.6
2022-08-11T03:14:59.946Z,17.7
2022-08-11T03:15:59.655Z,17.8
2022-08-11T03:17:01.562Z,17.8
2022-08-11T03:18:01.833Z,17.8
2022-08-11T03:19:01.315Z,17.9
2022-08-11T03:20:01.116Z,17.9
2022-08-11T03:21:00.908Z,17.9
2022-08-11T03:22:03.585Z,18
2022-08-11T03:23:05.344Z,18
2022-08-11T03:24:01.251Z,18
2022-08-11T03:25:00.929Z,18
2022-08-11T03:26:00.596Z,18
2022-08-11T03:27:00.216Z,18
2022-08-11T03:28:06.920Z,18
2022-08-11T03:29:00.980Z,18
2022-08-11T03:30:00.658Z,18
2022-08-11T03:31:00.305Z,18
2022-08-11T03:32:00.152Z,17.9
2022-08-11T03:33:10.463Z,18
2022-08-11T03:34:06.037Z,18
2022-08-11T03:35:01.575Z,18
2022-08-11T03:36:00.707Z,18
2022-08-11T03:37:16.822Z,18
2022-08-11T03:38:11.507Z,18
2022-08-11T03:39:00.740Z,18.1
2022-08-11T03:40:00.597Z,18.1
2022-08-11T03:41:00.339Z,18.1
2022-08-11T03:42:03.649Z,18.1
2022-08-11T03:43:14.762Z,18.1
2022-08-11T03:44:01.327Z,18.1
2022-08-11T03:45:01.061Z,18.1
2022-08-11T03:46:00.758Z,18.1
2022-08-11T03:47:00.485Z,18.1
2022-08-11T03:48:00.211Z,18.1
2022-08-11T03:48:59.899Z,18.1
2022-08-11T03:49:59.566Z,18.1
2022-08-11T03:51:01.308Z,18.1
2022-08-11T03:52:01.828Z,18.1
2022-08-11T03:53:01.017Z,18.1
2022-08-11T03:54:00.722Z,18.1
2022-08-11T03:55:00.361Z,18.2
2022-08-11T03:56:00.010Z,18.2
2022-08-11T03:56:59.816Z,18.2
2022-08-11T03:58:01.558Z,18.1
2022-08-11T03:59:01.366Z,18.2
2022-08-11T04:00:01.057Z,18.2
2022-08-11T04:01:00.867Z,18.1
2022-08-11T04:02:00.751Z,18.2
2022-08-11T04:03:00.727Z,18.2
2022-08-11T04:04:00.492Z,18.2
2022-08-11T04:05:00.218Z,18.2
2022-08-11T04:05:59.898Z,18.3
2022-08-11T04:07:01.130Z,18.2
2022-08-11T04:08:00.703Z,18.2
2022-08-11T04:09:01.407Z,18.2
2022-08-11T04:10:00.617Z,18.2
2022-08-11T04:11:00.299Z,18.2
2022-08-11T04:12:00.065Z,18.2
2022-08-11T04:12:59.868Z,18.2
2022-08-11T04:13:59.538Z,18.2
2022-08-11T04:15:01.316Z,18.3
2022-08-11T04:16:01.039Z,18.2
2022-08-11T04:17:01.436Z,18.2
2022-08-11T04:18:00.603Z,18.2
2022-08-11T04:19:00.285Z,18.2
2022-08-11T04:20:00.298Z,18.3
2022-08-11T04:20:59.974Z,18.3
2022-08-11T04:21:59.687Z,18.3
2022-08-11T04:23:01.412Z,18.3
2022-08-11T04:24:36.060Z,18.4
2022-08-11T04:25:01.130Z,18.5
2022-08-11T04:26:00.830Z,18.5
2022-08-11T04:27:01.919Z,18.5
2022-08-11T04:28:01.156Z,18.6
2022-08-11T04:29:00.651Z,18.6
2022-08-11T04:30:03.300Z,18.6
2022-08-11T04:31:01.492Z,18.7
2022-08-11T04:32:00.844Z,18.8
2022-08-11T04:33:00.574Z,18.8
2022-08-11T04:34:00.739Z,18.9
2022-08-11T04:35:00.353Z,18.9
2022-08-11T04:36:00.128Z,18.9
2022-08-11T04:36:59.868Z,19
2022-08-11T04:38:01.614Z,19
2022-08-11T04:39:01.542Z,19
2022-08-11T04:40:01.234Z,19.1
2022-08-11T04:41:01.027Z,19.1
2022-08-11T04:42:00.750Z,19.1
2022-08-11T04:43:00.453Z,19.1
2022-08-11T04:44:05.545Z,19.1
2022-08-11T04:45:01.149Z,19.1
2022-08-11T04:46:00.966Z,19.1
2022-08-11T04:47:00.662Z,19.1
2022-08-11T04:48:03.570Z,19.2
2022-08-11T04:49:01.366Z,19.2
2022-08-11T04:50:00.680Z,19.2
2022-08-11T04:51:00.744Z,19.2
2022-08-11T04:52:01.105Z,19.1
2022-08-11T04:53:00.793Z,19.2
2022-08-11T04:54:00.425Z,19.2
2022-08-11T04:55:00.210Z,19.2
2022-08-11T04:55:59.994Z,19.3
2022-08-11T04:56:59.700Z,19.3
2022-08-11T04:58:01.442Z,19.3
2022-08-11T04:59:01.162Z,19.3
2022-08-11T05:00:00.847Z,19.3
2022-08-11T05:01:00.667Z,19.4
2022-08-11T05:02:00.774Z,19.4
2022-08-11T05:03:00.628Z,19.4
2022-08-11T05:04:00.271Z,19.4
2022-08-11T05:04:59.977Z,19.4
2022-08-11T05:05:59.695Z,19.5
2022-08-11T05:07:01.376Z,19.5
2022-08-11T05:08:01.013Z,19.6
2022-08-11T05:09:01.712Z,19.6
2022-08-11T05:10:00.918Z,19.8
2022-08-11T05:11:00.558Z,20
2022-08-11T05:12:02.058Z,20.1
2022-08-11T05:13:01.240Z,20.3
2022-08-11T05:14:03.185Z,20.4
2022-08-11T05:15:01.607Z,20.6
2022-08-11T05:16:00.973Z,20.8
2022-08-11T05:17:00.659Z,20.9
2022-08-11T05:18:00.854Z,21.1
2022-08-11T05:19:06.144Z,21.2
2022-08-11T05:20:01.291Z,21.4
2022-08-11T05:21:04.874Z,21.5
2022-08-11T05:22:01.492Z,21.7
2022-08-11T05:23:01.265Z,21.9
2022-08-11T05:24:07.079Z,22.1
2022-08-11T05:25:00.934Z,22.3
2022-08-11T05:26:44.461Z,22.5
2022-08-11T05:27:01.297Z,22.7
2022-08-11T05:28:01.226Z,22.9
2022-08-11T05:29:20.165Z,23
2022-08-11T05:30:01.141Z,23.1
2022-08-11T05:31:00.744Z,23.3
2022-08-11T05:32:00.471Z,23.5
2022-08-11T05:33:02.268Z,23.6
2022-08-11T05:34:11.372Z,23.8
2022-08-11T05:35:01.090Z,23.8
2022-08-11T05:36:03.190Z,23.9
2022-08-11T05:37:23.915Z,24
2022-08-11T05:38:01.297Z,24
2022-08-11T05:39:11.630Z,24
2022-08-11T05:40:00.987Z,24.2
2022-08-11T05:41:00.736Z,24.3
2022-08-11T05:42:00.419Z,24.3
2022-08-11T05:43:00.086Z,24.4
2022-08-11T05:44:21.174Z,24.5
2022-08-11T05:45:00.785Z,24.6
2022-08-11T05:46:03.610Z,24.8
2022-08-11T05:47:01.260Z,24.9
2022-08-11T05:48:00.752Z,25
2022-08-11T05:49:00.391Z,25
2022-08-11T05:50:00.046Z,25.1
2022-08-11T05:51:00.626Z,25.2
2022-08-11T05:52:05.015Z,25.2
2022-08-11T05:53:00.697Z,25.2
2022-08-11T05:54:00.998Z,25.3
2022-08-11T05:55:06.251Z,25.3
2022-08-11T05:56:03.164Z,25.4
2022-08-11T05:57:01.869Z,25.5
2022-08-11T05:58:01.258Z,25.6
2022-08-11T05:59:00.615Z,25.7
2022-08-11T06:00:00.635Z,25.9
2022-08-11T06:01:00.437Z,26.1
2022-08-11T06:02:00.585Z,26.2
2022-08-11T06:03:00.549Z,26.3
2022-08-11T06:04:00.247Z,26.5
2022-08-11T06:04:59.977Z,26.6
2022-08-11T06:05:59.647Z,26.6
2022-08-11T06:07:01.410Z,26.7
2022-08-11T06:08:01.084Z,26.8
2022-08-11T06:09:01.138Z,26.9
2022-08-11T06:10:00.895Z,26.9
2022-08-11T06:11:00.554Z,27
2022-08-11T06:12:01.534Z,27.1
2022-08-11T06:13:01.444Z,27.3
2022-08-11T06:14:00.652Z,27.3
2022-08-11T06:15:01.129Z,27.3
2022-08-11T06:16:06.237Z,27.4
2022-08-11T06:17:01.154Z,27.3
2022-08-11T06:18:00.996Z,27.1
2022-08-11T06:19:00.759Z,26.9
2022-08-11T06:20:06.992Z,26.8
2022-08-11T06:21:01.594Z,26.6
2022-08-11T06:22:01.252Z,26.6
2022-08-11T06:23:01.359Z,26.6
2022-08-11T06:24:00.984Z,26.5
2022-08-11T06:25:00.687Z,26.3
2022-08-11T06:26:00.393Z,26.2
2022-08-11T06:27:15.550Z,26
2022-08-11T06:28:01.245Z,25.6
2022-08-11T06:29:00.910Z,25.1
2022-08-11T06:30:00.814Z,24.7
2022-08-11T06:31:00.642Z,24.3
2022-08-11T06:32:00.427Z,24
2022-08-11T06:33:00.273Z,23.6
2022-08-11T06:34:00.827Z,23.3
2022-08-11T06:35:00.554Z,23
2022-08-11T06:36:00.202Z,22.8
2022-08-11T06:36:59.848Z,22.6
2022-08-11T06:38:01.535Z,22.4
2022-08-11T06:39:01.201Z,22.3
2022-08-11T06:40:01.066Z,22.3
2022-08-11T06:41:01.606Z,22.2
2022-08-11T06:42:01.418Z,22.1
2022-08-11T06:43:01.109Z,22.1
2022-08-11T06:44:05.234Z,22
2022-08-11T06:45:00.777Z,21.9
2022-08-11T06:46:01.142Z,21.9
2022-08-11T06:47:00.829Z,21.8
2022-08-11T06:48:00.534Z,21.8
2022-08-11T06:49:00.246Z,21.8
2022-08-11T06:49:59.885Z,21.8
2022-08-11T06:50:59.579Z,21.7
2022-08-11T06:52:01.668Z,21.6
2022-08-11T06:53:01.819Z,21.6
2022-08-11T06:54:04.221Z,21.6
2022-08-11T06:55:01.502Z,21.6
2022-08-11T06:56:00.792Z,21.7
2022-08-11T06:57:34.198Z,21.7
2022-08-11T06:58:01.131Z,21.8
2022-08-11T06:59:00.815Z,21.8
2022-08-11T07:00:00.845Z,21.8
2022-08-11T07:01:00.731Z,21.9
2022-08-11T07:02:00.510Z,21.9
2022-08-11T07:03:00.197Z,21.9
2022-08-11T07:03:59.923Z,22
2022-08-11T07:04:59.617Z,22
2022-08-11T07:06:01.371Z,22
2022-08-11T07:07:01.321Z,22
2022-08-11T07:08:33.262Z,22.1
2022-08-11T07:09:01.087Z,22.1
2022-08-11T07:10:00.772Z,22.1
2022-08-11T07:11:01.318Z,22.2
2022-08-11T07:12:00.904Z,22.1
2022-08-11T07:13:00.537Z,22.2
2022-08-11T07:14:00.252Z,22.2
2022-08-11T07:15:00.566Z,22.3
2022-08-11T07:16:11.224Z,22.3
2022-08-11T07:17:01.257Z,22.3
2022-08-11T07:18:00.941Z,22.3
2022-08-11T07:19:00.591Z,22.3
2022-08-11T07:20:00.352Z,22.3
2022-08-11T07:21:02.300Z,22.3
2022-08-11T07:22:03.915Z,22.4
2022-08-11T07:23:01.783Z,22.5
2022-08-11T07:24:00.822Z,22.5
2022-08-11T07:25:02.988Z,22.5
2022-08-11T07:26:00.779Z,22.5
2022-08-11T07:27:00.492Z,22.6
2022-08-11T07:28:00.224Z,22.6
2022-08-11T07:28:59.982Z,22.6
2022-08-11T07:29:59.641Z,22.7
2022-08-11T07:31:01.565Z,22.7
2022-08-11T07:32:01.336Z,22.8
2022-08-11T07:33:00.568Z,22.8
2022-08-11T07:34:08.168Z,22.8
2022-08-11T07:35:01.289Z,22.9
2022-08-11T07:36:00.971Z,22.9
2022-08-11T07:37:00.651Z,23
2022-08-11T07:38:01.778Z,23
2022-08-11T07:39:01.315Z,23
2022-08-11T07:40:01.661Z,23
2022-08-11T07:41:01.074Z,23
2022-08-11T07:42:00.777Z,23
2022-08-11T07:43:00.513Z,23
2022-08-11T07:44:00.288Z,23
2022-08-11T07:45:05.098Z,23
2022-08-11T07:46:02.258Z,23
2022-08-11T07:47:01.726Z,23.1
2022-08-11T07:48:00.929Z,23.1
2022-08-11T07:49:01.638Z,23.2
2022-08-11T07:50:08.947Z,23.2
2022-08-11T07:51:01.370Z,23.2
2022-08-11T07:52:00.751Z,23.3
2022-08-11T07:53:00.447Z,23.3
2022-08-11T07:54:07.462Z,23.3
2022-08-11T07:55:13.046Z,23.3
2022-08-11T07:56:00.739Z,23.4
2022-08-11T07:57:08.932Z,23.5
2022-08-11T07:58:15.803Z,23.5
2022-08-11T07:59:06.276Z,23.5
2022-08-11T08:00:04.622Z,23.5
2022-08-11T08:01:01.751Z,23.5
2022-08-11T08:02:01.105Z,23.5
2022-08-11T08:03:00.612Z,23.5
2022-08-11T08:04:00.411Z,23.5
2022-08-11T08:05:00.076Z,23.5
2022-08-11T08:05:59.732Z,23.5
2022-08-11T08:07:01.393Z,23.5
2022-08-11T08:08:01.167Z,23.5
2022-08-11T08:09:00.868Z,23.5
2022-08-11T08:10:00.768Z,23.5
2022-08-11T08:11:00.486Z,23.5
2022-08-11T08:12:00.275Z,23.5
2022-08-11T08:12:59.957Z,23.6
2022-08-11T08:13:59.665Z,23.6
2022-08-11T08:15:01.621Z,23.6
2022-08-11T08:16:01.365Z,23.6
2022-08-11T08:17:01.005Z,23.6
2022-08-11T08:18:09.979Z,23.6
2022-08-11T08:19:00.725Z,23.6
2022-08-11T08:20:00.551Z,23.8
2022-08-11T08:21:00.218Z,23.8
2022-08-11T08:22:04.349Z,23.9
2022-08-11T08:23:00.955Z,24
2022-08-11T08:24:00.658Z,24
2022-08-11T08:25:00.862Z,24.1
2022-08-11T08:26:01.309Z,24.1
2022-08-11T08:27:00.773Z,24.1
2022-08-11T08:28:00.492Z,24.1
2022-08-11T08:29:00.150Z,24.1
2022-08-11T08:29:59.885Z,24.3
2022-08-11T08:30:59.728Z,24.3
2022-08-11T08:32:01.891Z,24.3
2022-08-11T08:33:02.310Z,24.4
2022-08-11T08:34:00.614Z,24.5
2022-08-11T08:35:00.328Z,24.6
2022-08-11T08:36:00.019Z,24.6
2022-08-11T08:36:59.925Z,24.6
2022-08-11T08:37:59.621Z,24.8
2022-08-11T08:39:01.362Z,24.8
2022-08-11T08:40:01.080Z,24.9
2022-08-11T08:41:00.776Z,25
2022-08-11T08:42:01.319Z,25
2022-08-11T08:43:00.979Z,25
2022-08-11T08:44:27.341Z,25.1
2022-08-11T08:45:01.001Z,25.1
2022-08-11T08:46:00.693Z,25.1
2022-08-11T08:47:00.406Z,25.1
2022-08-11T08:48:00.104Z,25.1
2022-08-11T08:48:59.768Z,25.1
2022-08-11T08:50:02.118Z,25.1
2022-08-11T08:51:01.450Z,25.1
2022-08-11T08:52:26.513Z,25.1
2022-08-11T08:53:01.165Z,25.1
2022-08-11T08:54:00.858Z,25.1
2022-08-11T08:55:00.665Z,25.1
2022-08-11T08:56:00.358Z,25.1
2022-08-11T08:56:59.997Z,25.2
2022-08-11T08:57:59.761Z,25.2
2022-08-11T08:59:01.393Z,25.2
2022-08-11T09:00:01.127Z,25.3
2022-08-11T09:01:01.386Z,25.3
2022-08-11T09:02:01.104Z,25.3
2022-08-11T09:03:12.506Z,25.3
2022-08-11T09:04:05.217Z,25.3
2022-08-11T09:05:00.809Z,25.3
2022-08-11T09:06:00.498Z,25.3
2022-08-11T09:07:00.217Z,25.4
2022-08-11T09:08:01.226Z,25.4
2022-08-11T09:09:00.646Z,25.4
2022-08-11T09:10:00.357Z,25.4
2022-08-11T09:11:00.345Z,25.4
2022-08-11T09:11:59.977Z,25.4
2022-08-11T09:12:59.782Z,25.5
2022-08-11T09:14:04.819Z,25.5
2022-08-11T09:15:01.457Z,25.6
2022-08-11T09:16:01.202Z,25.6
2022-08-11T09:17:00.905Z,25.6
2022-08-11T09:18:00.529Z,25.7
2022-08-11T09:19:00.219Z,25.6
2022-08-11T09:19:59.907Z,25.5
2022-08-11T09:20:59.698Z,25.5
2022-08-11T09:22:01.362Z,25.5
2022-08-11T09:23:54.640Z,25.4
2022-08-11T09:24:14.777Z,25.4
2022-08-11T09:25:01.075Z,25.4
2022-08-11T09:26:00.755Z,25.5
2022-08-11T09:27:00.459Z,25.5
2022-08-11T09:28:00.236Z,25.6
2022-08-11T09:28:59.956Z,25.8
2022-08-11T09:29:59.647Z,25.8
2022-08-11T09:31:04.135Z,25.7
2022-08-11T09:32:00.894Z,25.6
2022-08-11T09:33:00.593Z,25.6
2022-08-11T09:34:00.327Z,25.6
2022-08-11T09:34:59.994Z,25.6
2022-08-11T09:36:02.876Z,25.7
2022-08-11T09:37:00.726Z,25.7
2022-08-11T09:38:01.427Z,25.8
2022-08-11T09:39:01.362Z,25.8
2022-08-11T09:40:01.441Z,25.8
2022-08-11T09:41:06.737Z,25.8
2022-08-11T09:42:03.487Z,25.9
2022-08-11T09:43:01.504Z,26
2022-08-11T09:44:04.165Z,26
2022-08-11T09:45:01.183Z,26
2022-08-11T09:46:11.440Z,26
2022-08-11T09:47:00.790Z,26
2022-08-11T09:48:00.598Z,26
2022-08-11T09:49:01.190Z,25.9
2022-08-11T09:50:01.502Z,25.8
2022-08-11T09:51:10.871Z,25.8
2022-08-11T09:52:05.318Z,25.8
2022-08-11T09:53:37.156Z,25.8
2022-08-11T09:54:02.817Z,25.8
2022-08-11T09:55:00.890Z,25.8
2022-08-11T09:56:15.507Z,25.8
2022-08-11T09:57:05.170Z,25.8
2022-08-11T09:58:00.734Z,25.8
2022-08-11T09:59:00.412Z,25.8
2022-08-11T10:00:12.413Z,25.8
2022-08-11T10:01:01.379Z,25.8
2022-08-11T10:02:01.197Z,25.7
2022-08-11T10:03:00.607Z,25.7
2022-08-11T10:04:00.308Z,25.7
2022-08-11T10:04:59.967Z,25.7
2022-08-11T10:06:02.380Z,25.7
2022-08-11T10:07:01.026Z,25.7
2022-08-11T10:08:01.238Z,25.7
2022-08-11T10:09:01.792Z,25.8
2022-08-11T10:10:02.181Z,25.8
2022-08-11T10:11:01.461Z,25.8
2022-08-11T10:12:01.279Z,25.8
2022-08-11T10:13:01.392Z,25.8
2022-08-11T10:14:32.760Z,25.9
2022-08-11T10:15:01.195Z,25.9
2022-08-11T10:16:15.151Z,26
2022-08-11T10:17:01.117Z,26
2022-08-11T10:18:00.936Z,26
2022-08-11T10:19:00.702Z,26
2022-08-11T10:20:04.156Z,26
2022-08-11T10:21:02.086Z,26
2022-08-11T10:22:01.218Z,26
2022-08-11T10:23:00.734Z,26
2022-08-11T10:24:05.578Z,26.1
2022-08-11T10:25:01.446Z,26.2
2022-08-11T10:26:01.512Z,26.2
2022-08-11T10:27:01.259Z,26.2
2022-08-11T10:28:28.223Z,26.1
2022-08-11T10:29:12.622Z,26.1
2022-08-11T10:30:01.182Z,26.1
2022-08-11T10:31:01.085Z,26.1
2022-08-11T10:32:04.452Z,26
2022-08-11T10:33:01.209Z,26
2022-08-11T10:34:00.874Z,26
2022-08-11T10:35:00.943Z,26
2022-08-11T10:36:01.141Z,26.1
2022-08-11T10:37:00.879Z,26.1
2022-08-11T10:38:06.093Z,26.1
2022-08-11T10:39:00.632Z,26.1
2022-08-11T10:40:00.345Z,26.1
2022-08-11T10:40:59.987Z,26.2
2022-08-11T10:42:03.402Z,26.3
2022-08-11T10:43:01.221Z,26.3
2022-08-11T10:44:02.375Z,26.4
2022-08-11T10:45:01.139Z,26.3
2022-08-11T10:46:00.936Z,26.3
2022-08-11T10:47:00.682Z,26.2
2022-08-11T10:48:00.377Z,26.2
2022-08-11T10:49:00.480Z,26.1
2022-08-11T10:50:00.213Z,26.1
2022-08-11T10:51:01.234Z,26.1
2022-08-11T10:52:00.713Z,26.1
2022-08-11T10:53:00.446Z,26.1
2022-08-11T10:54:00.235Z,26.1
2022-08-11T10:54:59.911Z,26.1
2022-08-11T10:55:59.697Z,26.1
2022-08-11T10:57:01.453Z,26.1
2022-08-11T10:58:05.105Z,26.2
2022-08-11T10:59:04.027Z,26.2
2022-08-11T11:00:01.225Z,26.1
2022-08-11T11:01:01.229Z,26.1
2022-08-11T11:02:01.266Z,26.2
2022-08-11T11:03:22.658Z,26.3
2022-08-11T11:04:01.068Z,26.3
2022-08-11T11:05:00.855Z,26.3
2022-08-11T11:06:27.746Z,26.3
2022-08-11T11:07:01.315Z,26.4
2022-08-11T11:08:01.079Z,26.5
2022-08-11T11:09:04.105Z,26.5
2022-08-11T11:10:02.152Z,26.5
2022-08-11T11:11:01.654Z,26.4
2022-08-11T11:12:01.248Z,26.4
2022-08-11T11:13:00.944Z,26.3
2022-08-11T11:14:00.851Z,26.3
2022-08-11T11:15:00.667Z,26.3
2022-08-11T11:16:00.375Z,26.4
2022-08-11T11:17:00.324Z,26.4
2022-08-11T11:18:00.065Z,26.3
2022-08-11T11:19:00.949Z,26.4
2022-08-11T11:20:00.800Z,26.5
2022-08-11T11:21:00.481Z,26.5
2022-08-11T11:22:00.236Z,26.5
2022-08-11T11:23:00.129Z,26.5
2022-08-11T11:23:59.803Z,26.5
2022-08-11T11:25:01.547Z,26.5
2022-08-11T11:26:00.722Z,26.4
2022-08-11T11:27:04.439Z,26.3
2022-08-11T11:28:01.366Z,26.3
2022-08-11T11:29:01.054Z,26.3
2022-08-11T11:30:00.878Z,26.4
2022-08-11T11:31:00.681Z,26.4
2022-08-11T11:32:08.684Z,26.5
2022-08-11T11:33:01.511Z,26.5
2022-08-11T11:34:06.395Z,26.6
2022-08-11T11:35:01.315Z,26.6
2022-08-11T11:36:01.007Z,26.7
2022-08-11T11:37:09.180Z,26.8
2022-08-11T11:38:04.318Z,26.8
2022-08-11T11:39:00.924Z,26.7
2022-08-11T11:40:00.613Z,26.6
2022-08-11T11:41:00.284Z,26.6
2022-08-11T11:42:12.912Z,26.7
2022-08-11T11:43:00.995Z,26.7
2022-08-11T11:44:01.585Z,26.8
2022-08-11T11:45:01.610Z,26.8
2022-08-11T11:46:01.032Z,26.8
2022-08-11T11:47:00.774Z,26.8
2022-08-11T11:48:01.537Z,26.8
2022-08-11T11:49:01.213Z,26.8
2022-08-11T11:50:01.091Z,26.8
2022-08-11T11:51:00.756Z,26.7
2022-08-11T11:52:00.488Z,26.7
2022-08-11T11:53:00.206Z,26.6
2022-08-11T11:54:00.804Z,26.6
2022-08-11T11:55:00.449Z,26.6
2022-08-11T11:56:00.100Z,26.5
2022-08-11T11:56:59.843Z,26.6
2022-08-11T11:58:02.537Z,26.5
2022-08-11T11:59:01.677Z,26.5
2022-08-11T12:00:00.662Z,26.5
2022-08-11T12:01:00.595Z,26.6
2022-08-11T12:02:00.365Z,26.6
2022-08-11T12:03:00.218Z,26.6
2022-08-11T12:03:59.959Z,26.7
2022-08-11T12:04:59.643Z,26.8
2022-08-11T12:06:01.293Z,26.8
2022-08-11T12:07:01.017Z,26.7
2022-08-11T12:08:12.644Z,26.7
2022-08-11T12:09:00.700Z,26.8
2022-08-11T12:10:00.382Z,26.7
2022-08-11T12:11:00.114Z,26.7
2022-08-11T12:11:59.818Z,26.7
2022-08-11T12:13:01.514Z,26.7
2022-08-11T12:14:00.741Z,26.6
2022-08-11T12:15:00.376Z,26.7
2022-08-11T12:16:32.123Z,26.7
2022-08-11T12:17:01.182Z,26.7
2022-08-11T12:18:00.876Z,26.8
2022-08-11T12:19:00.569Z,26.8
2022-08-11T12:20:00.286Z,26.9
2022-08-11T12:21:01.308Z,26.9
2022-08-11T12:22:01.426Z,26.9
2022-08-11T12:23:01.013Z,26.9
2022-08-11T12:24:04.302Z,27
2022-08-11T12:25:00.671Z,26.9
2022-08-11T12:26:25.407Z,26.9
2022-08-11T12:27:16.361Z,26.9
2022-08-11T12:28:00.942Z,26.9
2022-08-11T12:29:00.629Z,26.9
2022-08-11T12:30:00.339Z,26.9
2022-08-11T12:31:00.143Z,27
2022-08-11T12:31:59.943Z,27
2022-08-11T12:32:59.650Z,27
2022-08-11T12:34:01.394Z,27
2022-08-11T12:35:01.090Z,27
2022-08-11T12:36:01.476Z,27
2022-08-11T12:37:00.989Z,27
2022-08-11T12:38:07.985Z,26.9
2022-08-11T12:39:01.055Z,26.9
2022-08-11T12:40:15.819Z,26.8
2022-08-11T12:41:16.864Z,26.9
2022-08-11T12:42:01.718Z,26.9
2022-08-11T12:43:00.679Z,26.9
2022-08-11T12:44:01.454Z,26.9
2022-08-11T12:45:00.554Z,27
2022-08-11T12:46:00.236Z,27
2022-08-11T12:46:59.896Z,26.9
2022-08-11T12:48:48.603Z,27
2022-08-11T12:49:02.324Z,27
2022-08-11T12:49:59.865Z,27
2022-08-11T12:51:01.603Z,27
2022-08-11T12:52:13.169Z,27
2022-08-11T12:53:01.319Z,27
2022-08-11T12:54:00.603Z,27.1
2022-08-11T12:55:00.644Z,27.1
2022-08-11T12:56:03.659Z,27.1
2022-08-11T12:57:01.028Z,27
2022-08-11T12:58:00.694Z,27
2022-08-11T12:59:00.360Z,26.9
2022-08-11T13:00:00.027Z,26.8
2022-08-11T13:01:00.043Z,26.8
2022-08-11T13:01:59.773Z,26.8
2022-08-11T13:03:01.489Z,26.8
2022-08-11T13:04:01.145Z,26.9
2022-08-11T13:05:00.976Z,27
2022-08-11T13:06:01.082Z,27
2022-08-11T13:07:00.793Z,27
2022-08-11T13:08:01.235Z,27
2022-08-11T13:09:01.666Z,27
2022-08-11T13:10:01.232Z,27
2022-08-11T13:11:01.018Z,27
2022-08-11T13:12:00.626Z,27
2022-08-11T13:13:00.330Z,27
2022-08-11T13:14:00.003Z,26.9
2022-08-11T13:14:59.712Z,26.9
2022-08-11T13:16:01.457Z,26.9
2022-08-11T13:17:01.107Z,26.9
2022-08-11T13:18:03.800Z,26.8
2022-08-11T13:19:01.300Z,26.9
2022-08-11T13:20:01.213Z,27
2022-08-11T13:21:00.980Z,27
2022-08-11T13:22:00.676Z,27
2022-08-11T13:23:07.612Z,27.1
2022-08-11T13:24:03.279Z,27.1
2022-08-11T13:25:01.307Z,27.1